sensor_id;sensor_type;location;lat;lon;timestamp;pressure;altitude;pressure_sealevel;temperature;humidity
32298;BME280;18782;48.984;8.548;2024-03-06T00:01:04;100025.50;;;5.16;100.00
32298;BME280;18782;48.984;8.548;2024-03-06T00:03:33;100031.50;;;5.17;100.00
32298;BME280;18782;48.984;8.548;2024-03-06T00:06:00;100030.69;;;5.18;100.00
32298;BME280;18782;48.984;8.548;2024-03-06T00:08:29;100035.00;;;5.19;100.00
32298;BME280;18782;48.984;8.548;2024-03-06T00:10:57;100036.88;;;5.23;100.00
32298;BME280;18782;48.984;8.548;2024-03-06T00:13:25;100035.28;;;5.25;100.00
32298;BME280;18782;48.984;8.548;2024-03-06T00:15:52;100034.47;;;5.26;100.00
32298;BME280;18782;48.984;8.548;2024-03-06T00:18:20;100037.97;;;5.28;100.00
32298;BME280;18782;48.984;8.548;2024-03-06T00:20:48;100036.53;;;5.33;100.00
32298;BME280;18782;48.984;8.548;2024-03-06T00:23:15;100029.78;;;5.35;100.00
32298;BME280;18782;48.984;8.548;2024-03-06T00:25:45;100036.63;;;5.36;100.00
32298;BME280;18782;48.984;8.548;2024-03-06T00:28:13;100045.09;;;5.35;100.00
32298;BME280;18782;48.984;8.548;2024-03-06T00:30:40;100040.88;;;5.36;100.00
32298;BME280;18782;48.984;8.548;2024-03-06T00:33:08;100042.72;;;5.38;100.00
32298;BME280;18782;48.984;8.548;2024-03-06T00:35:36;100047.72;;;5.37;100.00
32298;BME280;18782;48.984;8.548;2024-03-06T00:38:04;100043.38;;;5.34;100.00
32298;BME280;18782;48.984;8.548;2024-03-06T00:40:32;100043.38;;;5.34;100.00
32298;BME280;18782;48.984;8.548;2024-03-06T00:43:01;100036.53;;;5.33;100.00
32298;BME280;18782;48.984;8.548;2024-03-06T00:45:29;100042.50;;;5.34;100.00
32298;BME280;18782;48.984;8.548;2024-03-06T00:47:57;100045.09;;;5.35;100.00
32298;BME280;18782;48.984;8.548;2024-03-06T00:50:25;100031.25;;;5.30;100.00
32298;BME280;18782;48.984;8.548;2024-03-06T00:52:52;100029.50;;;5.29;100.00
32298;BME280;18782;48.984;8.548;2024-03-06T00:55:20;100031.25;;;5.30;100.00
32298;BME280;18782;48.984;8.548;2024-03-06T00:57:48;100026.31;;;5.33;100.00
32298;BME280;18782;48.984;8.548;2024-03-06T01:00:18;100024.69;;;5.35;100.00
32298;BME280;18782;48.984;8.548;2024-03-06T01:02:46;100026.44;;;5.36;100.00
32298;BME280;18782;48.984;8.548;2024-03-06T01:05:13;100019.59;;;5.35;100.00
32298;BME280;18782;48.984;8.548;2024-03-06T01:07:41;100028.91;;;5.35;100.00
32298;BME280;18782;48.984;8.548;2024-03-06T01:10:09;100028.56;;;5.27;100.00
32298;BME280;18782;48.984;8.548;2024-03-06T01:12:37;100032.88;;;5.28;100.00
32298;BME280;18782;48.984;8.548;2024-03-06T01:15:05;100030.31;;;5.28;100.00
32298;BME280;18782;48.984;8.548;2024-03-06T01:17:35;100032.72;;;5.25;100.00
32298;BME280;18782;48.984;8.548;2024-03-06T01:20:04;100033.75;;;5.29;100.00
32298;BME280;18782;48.984;8.548;2024-03-06T01:22:33;100034.41;;;5.24;100.00
32298;BME280;18782;48.984;8.548;2024-03-06T01:25:01;100035.94;;;5.21;100.00
32298;BME280;18782;48.984;8.548;2024-03-06T01:27:29;100032.38;;;5.17;100.00
32298;BME280;18782;48.984;8.548;2024-03-06T01:29:56;100037.38;;;5.16;100.00
32298;BME280;18782;48.984;8.548;2024-03-06T01:32:24;100038.13;;;5.13;100.00
32298;BME280;18782;48.984;8.548;2024-03-06T01:34:53;100042.50;;;5.16;100.00
32298;BME280;18782;48.984;8.548;2024-03-06T01:37:21;100039.00;;;5.14;100.00
32298;BME280;18782;48.984;8.548;2024-03-06T01:39:49;100042.38;;;5.13;100.00
32298;BME280;18782;48.984;8.548;2024-03-06T01:42:17;100044.69;;;5.08;100.00
32298;BME280;18782;48.984;8.548;2024-03-06T01:44:44;100042.19;;;5.10;100.00
32298;BME280;18782;48.984;8.548;2024-03-06T01:47:12;100047.25;;;5.08;100.00
32298;BME280;18782;48.984;8.548;2024-03-06T01:49:40;100045.41;;;5.06;100.00
32298;BME280;18782;48.984;8.548;2024-03-06T01:52:14;100041.16;;;5.06;100.00
32298;BME280;18782;48.984;8.548;2024-03-06T01:54:44;100048.69;;;5.03;100.00
32298;BME280;18782;48.984;8.548;2024-03-06T01:57:15;100050.22;;;5.00;100.00
32298;BME280;18782;48.984;8.548;2024-03-06T01:59:45;100046.78;;;4.99;100.00
32298;BME280;18782;48.984;8.548;2024-03-06T02:02:12;100043.22;;;4.95;100.00
32298;BME280;18782;48.984;8.548;2024-03-06T02:04:40;100054.09;;;4.91;100.00
32298;BME280;18782;48.984;8.548;2024-03-06T02:07:09;100043.09;;;4.92;100.00
32298;BME280;18782;48.984;8.548;2024-03-06T02:09:39;100042.91;;;4.89;100.00
32298;BME280;18782;48.984;8.548;2024-03-06T02:12:07;100043.72;;;4.88;100.00
32298;BME280;18782;48.984;8.548;2024-03-06T02:14:35;100045.41;;;4.88;100.00
32298;BME280;18782;48.984;8.548;2024-03-06T02:17:03;100039.28;;;4.84;100.00
32298;BME280;18782;48.984;8.548;2024-03-06T02:19:38;100044.25;;;4.81;100.00
32298;BME280;18782;48.984;8.548;2024-03-06T02:22:08;100038.97;;;4.78;100.00
32298;BME280;18782;48.984;8.548;2024-03-06T02:24:36;100040.88;;;4.82;100.00
32298;BME280;18782;48.984;8.548;2024-03-06T02:27:03;100042.78;;;4.86;100.00
32298;BME280;18782;48.984;8.548;2024-03-06T02:29:32;100048.03;;;4.89;100.00
32298;BME280;18782;48.984;8.548;2024-03-06T02:32:00;100049.94;;;4.93;100.00
32298;BME280;18782;48.984;8.548;2024-03-06T02:34:29;100044.66;;;4.90;100.00
32298;BME280;18782;48.984;8.548;2024-03-06T02:36:57;100043.72;;;4.88;100.00
32298;BME280;18782;48.984;8.548;2024-03-06T02:39:26;100043.00;;;4.91;100.00
32298;BME280;18782;48.984;8.548;2024-03-06T02:41:53;100050.72;;;4.92;100.00
32298;BME280;18782;48.984;8.548;2024-03-06T02:44:21;100044.66;;;4.90;100.00
32298;BME280;18782;48.984;8.548;2024-03-06T02:46:50;100043.78;;;4.90;100.00
32298;BME280;18782;48.984;8.548;2024-03-06T02:49:18;100046.28;;;4.88;100.00
32298;BME280;18782;48.984;8.548;2024-03-06T02:51:46;100046.28;;;4.88;100.00
32298;BME280;18782;48.984;8.548;2024-03-06T02:54:13;100045.25;;;4.85;100.00
32298;BME280;18782;48.984;8.548;2024-03-06T02:56:43;100048.47;;;4.81;100.00
32298;BME280;18782;48.984;8.548;2024-03-06T02:59:10;100045.81;;;4.79;100.00
32298;BME280;18782;48.984;8.548;2024-03-06T03:01:38;100049.03;;;4.75;100.00
32298;BME280;18782;48.984;8.548;2024-03-06T03:04:06;100052.31;;;4.72;100.00
32298;BME280;18782;48.984;8.548;2024-03-06T03:06:34;100058.34;;;4.75;100.00
32298;BME280;18782;48.984;8.548;2024-03-06T03:09:02;100056.53;;;4.72;100.00
32298;BME280;18782;48.984;8.548;2024-03-06T03:11:30;100070.56;;;4.64;100.00
32298;BME280;18782;48.984;8.548;2024-03-06T03:13:59;100065.03;;;4.55;100.00
32298;BME280;18782;48.984;8.548;2024-03-06T03:16:27;100065.16;;;4.58;100.00
32298;BME280;18782;48.984;8.548;2024-03-06T03:18:56;100069.38;;;4.57;100.00
32298;BME280;18782;48.984;8.548;2024-03-06T03:21:23;100065.97;;;4.57;100.00
32298;BME280;18782;48.984;8.548;2024-03-06T03:23:51;100072.00;;;4.59;100.00
32298;BME280;18782;48.984;8.548;2024-03-06T03:26:19;100072.09;;;4.60;100.00
32298;BME280;18782;48.984;8.548;2024-03-06T03:28:47;100068.69;;;4.60;100.00
32298;BME280;18782;48.984;8.548;2024-03-06T03:31:16;100067.25;;;4.65;100.00
32298;BME280;18782;48.984;8.548;2024-03-06T03:33:44;100062.13;;;4.65;100.00
32298;BME280;18782;48.984;8.548;2024-03-06T03:36:11;100067.38;;;4.68;100.00
32298;BME280;18782;48.984;8.548;2024-03-06T03:38:39;100070.91;;;4.70;100.00
32298;BME280;18782;48.984;8.548;2024-03-06T03:41:08;100072.63;;;4.71;100.00
32298;BME280;18782;48.984;8.548;2024-03-06T03:43:38;100066.78;;;4.74;100.00
32298;BME280;18782;48.984;8.548;2024-03-06T03:46:06;100066.50;;;4.67;100.00
32298;BME280;18782;48.984;8.548;2024-03-06T03:48:36;100069.91;;;4.68;100.00
32298;BME280;18782;48.984;8.548;2024-03-06T03:51:04;100074.97;;;4.66;100.00
32298;BME280;18782;48.984;8.548;2024-03-06T03:53:33;100067.25;;;4.65;100.00
32298;BME280;18782;48.984;8.548;2024-03-06T03:56:02;100076.53;;;4.64;100.00
32298;BME280;18782;48.984;8.548;2024-03-06T03:58:30;100077.44;;;4.65;100.00
32298;BME280;18782;48.984;8.548;2024-03-06T04:00:58;100074.09;;;4.66;100.00
32298;BME280;18782;48.984;8.548;2024-03-06T04:03:26;100082.38;;;4.62;100.00
32298;BME280;18782;48.984;8.548;2024-03-06T04:05:55;100079.03;;;4.63;100.00
32298;BME280;18782;48.984;8.548;2024-03-06T04:08:23;100084.41;;;4.69;100.00
32298;BME280;18782;48.984;8.548;2024-03-06T04:10:51;100091.13;;;4.67;100.00
32298;BME280;18782;48.984;8.548;2024-03-06T04:13:18;100086.59;;;4.61;100.00
32298;BME280;18782;48.984;8.548;2024-03-06T04:15:47;100086.66;;;4.63;100.00
32298;BME280;18782;48.984;8.548;2024-03-06T04:18:14;100095.19;;;4.63;100.00
32298;BME280;18782;48.984;8.548;2024-03-06T04:20:42;100095.91;;;4.61;100.00
32298;BME280;18782;48.984;8.548;2024-03-06T04:23:11;100090.66;;;4.58;100.00
32298;BME280;18782;48.984;8.548;2024-03-06T04:25:39;100094.00;;;4.57;100.00
32298;BME280;18782;48.984;8.548;2024-03-06T04:28:07;100101.72;;;4.58;100.00
32298;BME280;18782;48.984;8.548;2024-03-06T04:30:35;100101.66;;;4.57;100.00
32298;BME280;18782;48.984;8.548;2024-03-06T04:33:02;100103.91;;;4.51;100.00
32298;BME280;18782;48.984;8.548;2024-03-06T04:35:31;100104.78;;;4.51;100.00
32298;BME280;18782;48.984;8.548;2024-03-06T04:37:58;100110.75;;;4.52;100.00
32298;BME280;18782;48.984;8.548;2024-03-06T04:40:30;100110.91;;;4.55;100.00
32298;BME280;18782;48.984;8.548;2024-03-06T04:42:58;100115.13;;;4.54;100.00
32298;BME280;18782;48.984;8.548;2024-03-06T04:45:26;100110.97;;;4.56;100.00
32298;BME280;18782;48.984;8.548;2024-03-06T04:47:54;100115.44;;;4.60;100.00
32298;BME280;18782;48.984;8.548;2024-03-06T04:50:22;100115.44;;;4.60;100.00
32298;BME280;18782;48.984;8.548;2024-03-06T04:52:50;100121.31;;;4.59;100.00
32298;BME280;18782;48.984;8.548;2024-03-06T04:55:18;100120.53;;;4.60;100.00
32298;BME280;18782;48.984;8.548;2024-03-06T04:57:52;100123.97;;;4.61;100.00
32298;BME280;18782;48.984;8.548;2024-03-06T05:00:20;100116.16;;;4.58;100.00
32298;BME280;18782;48.984;8.548;2024-03-06T05:02:48;100135.84;;;4.60;100.00
32298;BME280;18782;48.984;8.548;2024-03-06T05:05:34;100142.53;;;4.58;100.00
32298;BME280;18782;48.984;8.548;2024-03-06T05:08:20;100146.75;;;4.58;100.00
32298;BME280;18782;48.984;8.548;2024-03-06T05:11:05;100140.84;;;4.59;100.00
32298;BME280;18782;48.984;8.548;2024-03-06T05:13:53;100150.25;;;4.60;100.00
32298;BME280;18782;48.984;8.548;2024-03-06T05:16:38;100157.81;;;4.58;100.00
32298;BME280;18782;48.984;8.548;2024-03-06T05:19:23;100160.47;;;4.60;100.00
32298;BME280;18782;48.984;8.548;2024-03-06T05:22:14;100159.66;;;4.61;100.00
32298;BME280;18782;48.984;8.548;2024-03-06T05:24:59;100169.75;;;4.59;100.00
32298;BME280;18782;48.984;8.548;2024-03-06T05:27:44;100171.53;;;4.60;100.00
32298;BME280;18782;48.984;8.548;2024-03-06T05:30:31;100172.41;;;4.61;100.00
32298;BME280;18782;48.984;8.548;2024-03-06T05:33:16;100176.94;;;4.66;100.00
32298;BME280;18782;48.984;8.548;2024-03-06T05:36:01;100174.47;;;4.68;100.00
32298;BME280;18782;48.984;8.548;2024-03-06T05:38:47;100179.56;;;4.68;100.00
32298;BME280;18782;48.984;8.548;2024-03-06T05:41:33;100188.09;;;4.68;100.00
32298;BME280;18782;48.984;8.548;2024-03-06T05:44:18;100189.06;;;4.70;100.00
32298;BME280;18782;48.984;8.548;2024-03-06T05:47:04;100191.84;;;4.75;100.00
32298;BME280;18782;48.984;8.548;2024-03-06T05:49:50;100195.34;;;4.77;100.00
32298;BME280;18782;48.984;8.548;2024-03-06T05:52:35;100200.75;;;4.83;100.00
32298;BME280;18782;48.984;8.548;2024-03-06T05:55:21;100209.22;;;4.82;100.00
32298;BME280;18782;48.984;8.548;2024-03-06T05:58:06;100209.28;;;4.84;100.00
32298;BME280;18782;48.984;8.548;2024-03-06T06:00:34;100209.34;;;4.85;100.00
32298;BME280;18782;48.984;8.548;2024-03-06T06:03:03;100215.44;;;4.87;100.00
32298;BME280;18782;48.984;8.548;2024-03-06T06:05:31;100211.44;;;4.92;100.00
32298;BME280;18782;48.984;8.548;2024-03-06T06:07:58;100227.34;;;5.05;100.00
32298;BME280;18782;48.984;8.548;2024-03-06T06:10:26;100219.38;;;5.15;100.00
32298;BME280;18782;48.984;8.548;2024-03-06T06:12:54;100224.94;;;5.24;100.00
32298;BME280;18782;48.984;8.548;2024-03-06T06:15:22;100218.69;;;5.35;100.00
32298;BME280;18782;48.984;8.548;2024-03-06T06:17:49;100224.97;;;5.42;100.00
32298;BME280;18782;48.984;8.548;2024-03-06T06:20:20;100222.00;;;5.50;100.00
32298;BME280;18782;48.984;8.548;2024-03-06T06:22:48;100228.03;;;5.53;100.00
32298;BME280;18782;48.984;8.548;2024-03-06T06:25:15;100232.28;;;5.52;100.00
32298;BME280;18782;48.984;8.548;2024-03-06T06:27:43;100236.50;;;5.52;100.00
32298;BME280;18782;48.984;8.548;2024-03-06T06:30:11;100236.50;;;5.52;100.00
32298;BME280;18782;48.984;8.548;2024-03-06T06:32:39;100230.97;;;5.78;100.00
32298;BME280;18782;48.984;8.548;2024-03-06T06:35:09;100242.94;;;5.79;100.00
32298;BME280;18782;48.984;8.548;2024-03-06T06:37:39;100236.97;;;5.79;100.00
32298;BME280;18782;48.984;8.548;2024-03-06T06:40:08;100239.63;;;5.80;100.00
32298;BME280;18782;48.984;8.548;2024-03-06T06:42:44;100241.50;;;5.84;100.00
32298;BME280;18782;48.984;8.548;2024-03-06T06:45:13;100246.91;;;5.90;100.00
32298;BME280;18782;48.984;8.548;2024-03-06T06:47:41;100252.47;;;5.99;100.00
32298;BME280;18782;48.984;8.548;2024-03-06T06:50:09;100246.88;;;6.07;100.00
32298;BME280;18782;48.984;8.548;2024-03-06T06:52:39;100258.91;;;6.09;100.00
32298;BME280;18782;48.984;8.548;2024-03-06T06:55:07;100256.41;;;6.11;100.00
32298;BME280;18782;48.984;8.548;2024-03-06T06:57:36;100259.41;;;6.20;100.00
32298;BME280;18782;48.984;8.548;2024-03-06T07:00:04;100259.56;;;6.23;100.00
32298;BME280;18782;48.984;8.548;2024-03-06T07:02:37;100261.66;;;6.32;100.00
32298;BME280;18782;48.984;8.548;2024-03-06T07:05:06;100265.38;;;6.38;100.00
32298;BME280;18782;48.984;8.548;2024-03-06T07:07:35;100270.56;;;6.40;100.00
32298;BME280;18782;48.984;8.548;2024-03-06T07:10:05;100278.59;;;6.47;100.00
32298;BME280;18782;48.984;8.548;2024-03-06T07:12:32;100269.31;;;6.49;100.00
32298;BME280;18782;48.984;8.548;2024-03-06T07:15:00;100269.78;;;6.60;100.00
32298;BME280;18782;48.984;8.548;2024-03-06T07:17:28;100271.22;;;6.73;100.00
32298;BME280;18782;48.984;8.548;2024-03-06T07:19:56;100280.78;;;6.77;100.00
32298;BME280;18782;48.984;8.548;2024-03-06T07:22:24;100281.59;;;6.76;100.00
32298;BME280;18782;48.984;8.548;2024-03-06T07:24:52;100278.47;;;6.83;100.00
32298;BME280;18782;48.984;8.548;2024-03-06T07:27:21;100277.88;;;6.89;100.00
32298;BME280;18782;48.984;8.548;2024-03-06T07:29:49;100283.19;;;6.93;100.00
32298;BME280;18782;48.984;8.548;2024-03-06T07:32:17;100280.13;;;7.00;100.00
32298;BME280;18782;48.984;8.548;2024-03-06T07:34:44;100285.63;;;7.10;100.00
32298;BME280;18782;48.984;8.548;2024-03-06T07:37:12;100278.66;;;7.05;100.00
32298;BME280;18782;48.984;8.548;2024-03-06T07:39:40;100283.06;;;7.10;100.00
32298;BME280;18782;48.984;8.548;2024-03-06T07:42:08;100280.91;;;7.19;100.00
32298;BME280;18782;48.984;8.548;2024-03-06T07:44:38;100285.34;;;7.23;100.00
32298;BME280;18782;48.984;8.548;2024-03-06T07:47:06;100288.19;;;7.29;100.00
32298;BME280;18782;48.984;8.548;2024-03-06T07:49:35;100283.25;;;7.33;100.00
32298;BME280;18782;48.984;8.548;2024-03-06T07:52:03;100291.00;;;7.35;100.00
32298;BME280;18782;48.984;8.548;2024-03-06T07:54:31;100299.50;;;7.34;100.00
32298;BME280;18782;48.984;8.548;2024-03-06T07:56:59;100297.59;;;7.30;100.00
32298;BME280;18782;48.984;8.548;2024-03-06T07:59:27;100296.00;;;7.32;100.00
32298;BME280;18782;48.984;8.548;2024-03-06T08:01:56;100296.66;;;7.47;100.00
32298;BME280;18782;48.984;8.548;2024-03-06T08:04:24;100301.63;;;7.44;100.00
32298;BME280;18782;48.984;8.548;2024-03-06T08:06:53;100299.91;;;7.43;100.00
32298;BME280;18782;48.984;8.548;2024-03-06T08:09:20;100308.91;;;7.54;100.00
32298;BME280;18782;48.984;8.548;2024-03-06T08:11:49;100307.66;;;7.66;100.00
32298;BME280;18782;48.984;8.548;2024-03-06T08:14:18;100312.97;;;7.70;100.00
32298;BME280;18782;48.984;8.548;2024-03-06T08:16:46;100314.69;;;7.70;100.00
32298;BME280;18782;48.984;8.548;2024-03-06T08:19:15;100319.41;;;7.61;100.00
32298;BME280;18782;48.984;8.548;2024-03-06T08:21:42;100313.19;;;7.75;100.00
32298;BME280;18782;48.984;8.548;2024-03-06T08:24:10;100313.03;;;7.72;100.00
32298;BME280;18782;48.984;8.548;2024-03-06T08:26:38;100313.31;;;7.78;100.00
32298;BME280;18782;48.984;8.548;2024-03-06T08:29:05;100310.28;;;7.88;100.00
32298;BME280;18782;48.984;8.548;2024-03-06T08:31:33;100315.41;;;7.88;100.00
32298;BME280;18782;48.984;8.548;2024-03-06T08:34:01;100325.41;;;7.82;100.00
32298;BME280;18782;48.984;8.548;2024-03-06T08:36:30;100323.19;;;7.69;100.00
32298;BME280;18782;48.984;8.548;2024-03-06T08:38:57;100322.94;;;7.63;100.00
32298;BME280;18782;48.984;8.548;2024-03-06T08:41:25;100332.88;;;7.56;100.00
32298;BME280;18782;48.984;8.548;2024-03-06T08:43:53;100325.53;;;7.64;100.00
32298;BME280;18782;48.984;8.548;2024-03-06T08:46:20;100334.53;;;7.54;100.00
32298;BME280;18782;48.984;8.548;2024-03-06T08:48:48;100328.31;;;7.69;100.00
32298;BME280;18782;48.984;8.548;2024-03-06T08:51:16;100341.66;;;7.62;100.00
32298;BME280;18782;48.984;8.548;2024-03-06T08:53:45;100339.28;;;7.66;100.00
32298;BME280;18782;48.984;8.548;2024-03-06T08:56:15;100336.91;;;7.71;100.00
32298;BME280;18782;48.984;8.548;2024-03-06T08:58:42;100348.91;;;7.72;100.00
32298;BME280;18782;48.984;8.548;2024-03-06T09:01:10;100349.44;;;7.84;100.00
32298;BME280;18782;48.984;8.548;2024-03-06T09:03:39;100349.88;;;7.95;100.00
32298;BME280;18782;48.984;8.548;2024-03-06T09:06:06;100360.59;;;8.05;100.00
32298;BME280;18782;48.984;8.548;2024-03-06T09:08:34;100355.22;;;7.99;100.00
32298;BME280;18782;48.984;8.548;2024-03-06T09:11:03;100355.31;;;8.02;100.00
32298;BME280;18782;48.984;8.548;2024-03-06T09:13:31;100358.44;;;7.95;100.00
32298;BME280;18782;48.984;8.548;2024-03-06T09:15:58;100358.13;;;7.88;100.00
32298;BME280;18782;48.984;8.548;2024-03-06T09:18:26;100361.69;;;7.91;100.00
32298;BME280;18782;48.984;8.548;2024-03-06T09:20:54;100357.94;;;7.83;100.00
32298;BME280;18782;48.984;8.548;2024-03-06T09:23:22;100365.94;;;7.91;100.00
32298;BME280;18782;48.984;8.548;2024-03-06T09:25:50;100356.97;;;8.00;100.00
32298;BME280;18782;48.984;8.548;2024-03-06T09:28:19;100360.97;;;8.15;100.00
32298;BME280;18782;48.984;8.548;2024-03-06T09:30:46;100371.56;;;8.24;100.00
32298;BME280;18782;48.984;8.548;2024-03-06T09:33:14;100371.31;;;8.18;100.00
32298;BME280;18782;48.984;8.548;2024-03-06T09:35:42;100372.63;;;8.29;100.00
32298;BME280;18782;48.984;8.548;2024-03-06T09:38:12;100376.25;;;8.34;100.00
32298;BME280;18782;48.984;8.548;2024-03-06T09:40:44;100381.81;;;8.43;100.00
32298;BME280;18782;48.984;8.548;2024-03-06T09:43:12;100372.53;;;8.47;100.00
32298;BME280;18782;48.984;8.548;2024-03-06T09:45:43;100378.09;;;8.57;100.00
32298;BME280;18782;48.984;8.548;2024-03-06T09:48:12;100379.44;;;8.70;100.00
32298;BME280;18782;48.984;8.548;2024-03-06T09:50:42;100379.44;;;8.70;100.00
32298;BME280;18782;48.984;8.548;2024-03-06T09:53:14;100378.34;;;8.63;100.00
32298;BME280;18782;48.984;8.548;2024-03-06T09:55:43;100376.09;;;8.50;100.00
32298;BME280;18782;48.984;8.548;2024-03-06T09:58:12;100372.47;;;8.45;100.00
32298;BME280;18782;48.984;8.548;2024-03-06T10:00:41;100380.06;;;8.42;100.00
32298;BME280;18782;48.984;8.548;2024-03-06T10:03:10;100384.59;;;8.49;100.00
32298;BME280;18782;48.984;8.548;2024-03-06T10:05:39;100388.38;;;8.57;100.00
32298;BME280;18782;48.984;8.548;2024-03-06T10:08:07;100391.25;;;8.44;100.00
32298;BME280;18782;48.984;8.548;2024-03-06T10:10:35;100382.69;;;8.24;100.00
32298;BME280;18782;48.984;8.548;2024-03-06T10:13:03;100384.72;;;8.31;100.00
32298;BME280;18782;48.984;8.548;2024-03-06T10:15:31;100388.47;;;8.19;100.00
32298;BME280;18782;48.984;8.548;2024-03-06T10:18:12;100384.81;;;8.34;100.00
32298;BME280;18782;48.984;8.548;2024-03-06T10:20:40;100390.97;;;8.59;100.00
32298;BME280;18782;48.984;8.548;2024-03-06T10:23:11;100385.34;;;8.68;100.00
32298;BME280;18782;48.984;8.548;2024-03-06T10:25:38;100392.84;;;8.63;100.00
32298;BME280;18782;48.984;8.548;2024-03-06T10:28:07;100386.94;;;8.66;100.00
32298;BME280;18782;48.984;8.548;2024-03-06T10:30:37;100389.88;;;8.52;100.00
32298;BME280;18782;48.984;8.548;2024-03-06T10:33:08;100383.59;;;8.67;100.00
32298;BME280;18782;48.984;8.548;2024-03-06T10:35:39;100393.03;;;8.90;100.00
32298;BME280;18782;48.984;8.548;2024-03-06T10:38:08;100385.56;;;8.74;100.00
32298;BME280;18782;48.984;8.548;2024-03-06T10:40:38;100390.16;;;8.60;100.00
32298;BME280;18782;48.984;8.548;2024-03-06T10:43:07;100394.44;;;8.39;100.00
32298;BME280;18782;48.984;8.548;2024-03-06T10:45:40;100391.00;;;8.38;100.00
32298;BME280;18782;48.984;8.548;2024-03-06T10:48:09;100387.84;;;8.45;100.00
32298;BME280;18782;48.984;8.548;2024-03-06T10:50:41;100387.19;;;8.30;100.00
32298;BME280;18782;48.984;8.548;2024-03-06T10:53:12;100388.75;;;8.46;100.00
32298;BME280;18782;48.984;8.548;2024-03-06T10:55:46;100399.13;;;8.49;100.00
32298;BME280;18782;48.984;8.548;2024-03-06T10:58:16;100388.56;;;8.41;100.00
32298;BME280;18782;48.984;8.548;2024-03-06T11:00:47;100394.75;;;8.46;100.00
32298;BME280;18782;48.984;8.548;2024-03-06T11:03:15;100399.03;;;8.46;100.00
32298;BME280;18782;48.984;8.548;2024-03-06T11:05:45;100396.13;;;8.38;100.00
32298;BME280;18782;48.984;8.548;2024-03-06T11:08:15;100395.81;;;8.51;100.00
32298;BME280;18782;48.984;8.548;2024-03-06T11:10:43;100386.47;;;8.53;100.00
32298;BME280;18782;48.984;8.548;2024-03-06T11:13:21;100394.50;;;8.40;100.00
32298;BME280;18782;48.984;8.548;2024-03-06T11:15:51;100382.84;;;8.48;100.00
32298;BME280;18782;48.984;8.548;2024-03-06T11:18:40;100386.28;;;8.49;100.00
32298;BME280;18782;48.984;8.548;2024-03-06T11:21:32;100382.09;;;8.51;100.00
32298;BME280;18782;48.984;8.548;2024-03-06T11:24:18;100381.94;;;8.46;100.00
32298;BME280;18782;48.984;8.548;2024-03-06T11:26:48;100387.84;;;8.45;100.00
32298;BME280;18782;48.984;8.548;2024-03-06T11:29:17;100392.34;;;8.51;100.00
32298;BME280;18782;48.984;8.548;2024-03-06T11:31:59;100388.38;;;8.57;100.00
32298;BME280;18782;48.984;8.548;2024-03-06T11:34:29;100390.34;;;8.65;100.00
32298;BME280;18782;48.984;8.548;2024-03-06T11:36:59;100388.97;;;8.73;100.00
32298;BME280;18782;48.984;8.548;2024-03-06T11:39:28;100397.31;;;8.89;100.00
32298;BME280;18782;48.984;8.548;2024-03-06T11:41:56;100394.91;;;8.94;100.00
32298;BME280;18782;48.984;8.548;2024-03-06T11:44:26;100392.97;;;9.11;100.00
32298;BME280;18782;48.984;8.548;2024-03-06T11:46:57;100399.75;;;9.09;99.08
32298;BME280;18782;48.984;8.548;2024-03-06T11:49:26;100394.56;;;8.85;100.00
32298;BME280;18782;48.984;8.548;2024-03-06T11:51:56;100394.66;;;8.66;100.00
32298;BME280;18782;48.984;8.548;2024-03-06T11:54:26;100397.72;;;8.78;100.00
32298;BME280;18782;48.984;8.548;2024-03-06T11:56:56;100397.41;;;8.93;100.00
32298;BME280;18782;48.984;8.548;2024-03-06T11:59:24;100398.78;;;8.83;99.01
32298;BME280;18782;48.984;8.548;2024-03-06T12:01:52;100401.56;;;8.67;100.00
32298;BME280;18782;48.984;8.548;2024-03-06T12:04:21;100399.91;;;8.69;100.00
32298;BME280;18782;48.984;8.548;2024-03-06T12:06:48;100400.97;;;8.74;100.00
32298;BME280;18782;48.984;8.548;2024-03-06T12:09:16;100401.97;;;8.77;100.00
32298;BME280;18782;48.984;8.548;2024-03-06T12:11:47;100400.06;;;8.94;100.00
32298;BME280;18782;48.984;8.548;2024-03-06T12:14:17;100402.53;;;8.93;99.95
32298;BME280;18782;48.984;8.548;2024-03-06T12:16:54;100402.06;;;9.03;98.65
32298;BME280;18782;48.984;8.548;2024-03-06T12:19:22;100395.28;;;9.03;98.85
32298;BME280;18782;48.984;8.548;2024-03-06T12:21:50;100391.09;;;9.07;98.10
32298;BME280;18782;48.984;8.548;2024-03-06T12:24:20;100399.09;;;9.14;99.32
32298;BME280;18782;48.984;8.548;2024-03-06T12:26:59;100402.50;;;9.13;98.36
32298;BME280;18782;48.984;8.548;2024-03-06T12:29:28;100390.81;;;9.22;99.06
32298;BME280;18782;48.984;8.548;2024-03-06T12:31:56;100403.69;;;9.23;98.51
32298;BME280;18782;48.984;8.548;2024-03-06T12:34:23;100400.69;;;9.11;99.03
32298;BME280;18782;48.984;8.548;2024-03-06T12:36:51;100403.06;;;9.06;99.59
32298;BME280;18782;48.984;8.548;2024-03-06T12:39:19;100402.03;;;9.01;100.00
32298;BME280;18782;48.984;8.548;2024-03-06T12:41:50;100395.50;;;9.09;100.00
32298;BME280;18782;48.984;8.548;2024-03-06T12:44:19;100398.09;;;9.11;99.83
32298;BME280;18782;48.984;8.548;2024-03-06T12:46:47;100391.66;;;8.98;99.77
32298;BME280;18782;48.984;8.548;2024-03-06T12:49:15;100392.22;;;9.13;98.67
32298;BME280;18782;48.984;8.548;2024-03-06T12:51:44;100389.28;;;9.27;99.81
32298;BME280;18782;48.984;8.548;2024-03-06T12:54:12;100394.16;;;9.43;99.67
32298;BME280;18782;48.984;8.548;2024-03-06T12:56:40;100395.63;;;9.60;100.00
32298;BME280;18782;48.984;8.548;2024-03-06T12:59:09;100387.81;;;9.57;97.54
32298;BME280;18782;48.984;8.548;2024-03-06T13:01:37;100398.16;;;9.59;98.29
32298;BME280;18782;48.984;8.548;2024-03-06T13:04:05;100386.91;;;9.55;96.62